Time;durP1;ratioP1;P1;durP2;ratioP2;P2;SDS_P1;SDS_P2;PMS_P1;PMS_P2;Temp;Humidity;BMP_temperature;BMP_pressure;BME280_temperature;BME280_humidity;BME280_pressure;Samples;Min_cycle;Max_cycle;Signal;HPM_P1;HPM_P2
2021/04/12 00:00:31;;;;;;;2.53;2.20;;;;;;;17.95;45.90;101995.50;4982649;28;20026;-39
2021/04/12 00:03:00;;;;;;;2.35;2.03;;;;;;;17.96;46.21;101996.31;4951864;28;20053;-40
2021/04/12 00:05:54;;;;;;;2.47;2.28;;;;;;;17.92;46.16;102001.50;4984510;28;20033;-40
2021/04/12 00:08:31;;;;;;;2.50;2.20;;;;;;;17.92;46.05;102006.88;4983348;28;20154;-40
2021/04/12 00:11:21;;;;;;;3.10;2.30;;;;;;;17.91;46.35;102001.78;4969106;28;20038;-40
2021/04/12 00:14:13;;;;;;;3.03;1.80;;;;;;;17.91;46.27;101999.91;4983825;28;20042;-40
2021/04/12 00:16:45;;;;;;;4.07;2.10;;;;;;;17.88;46.34;101999.69;4982965;28;20105;-40
2021/04/12 00:19:16;;;;;;;2.20;2.00;;;;;;;17.88;45.97;102010.47;4985035;28;20030;-39
2021/04/12 00:21:47;;;;;;;3.30;2.00;;;;;;;17.86;46.17;102001.91;4985551;28;20026;-40
2021/04/12 00:24:50;;;;;;;2.00;1.90;;;;;;;17.87;46.23;102011.56;4983696;28;20035;-39
2021/04/12 00:27:30;;;;;;;4.13;2.03;;;;;;;17.85;46.15;102006.47;4984154;28;20031;-40
2021/04/12 00:30:18;;;;;;;13.73;2.10;;;;;;;17.84;46.30;102004.88;4968828;28;20030;-41
2021/04/12 00:32:55;;;;;;;1.80;1.70;;;;;;;17.83;46.33;102016.75;4967319;28;20062;-40
2021/04/12 00:35:42;;;;;;;3.45;1.92;;;;;;;17.80;46.36;102025.41;4967723;28;20037;-40
2021/04/12 00:38:10;;;;;;;2.95;2.00;;;;;;;17.80;46.48;102019.25;4985116;28;20034;-40
2021/04/12 00:41:08;;;;;;;2.33;1.88;;;;;;;17.77;46.32;102016.06;4985196;28;20026;-40
2021/04/12 00:44:05;;;;;;;1.88;1.70;;;;;;;17.76;46.55;102019.84;4984977;28;20088;-40
2021/04/12 00:46:53;;;;;;;1.95;1.85;;;;;;;17.76;46.50;102024.41;4982940;28;20448;-40
2021/04/12 00:49:46;;;;;;;4.57;1.80;;;;;;;17.73;46.39;102030.41;4981632;28;20081;-40
2021/04/12 00:52:26;;;;;;;3.10;1.92;;;;;;;17.72;46.35;102031.50;4984729;28;20528;-41
2021/04/12 00:55:09;;;;;;;1.90;1.80;;;;;;;17.73;46.75;102025.03;4984772;28;20369;-40
2021/04/12 00:57:53;;;;;;;1.75;1.58;;;;;;;17.68;46.81;102028.59;4952199;28;20642;-40
2021/04/12 01:00:36;;;;;;;2.65;1.70;;;;;;;17.69;46.57;102030.22;4982662;28;20034;-40
2021/04/12 01:03:19;;;;;;;2.17;1.92;;;;;;;17.68;46.60;102025.13;4982868;28;20515;-41
2021/04/12 01:06:06;;;;;;;5.97;1.73;;;;;;;17.68;46.50;102025.13;4983560;28;20476;-43
2021/04/12 01:08:34;;;;;;;2.60;1.75;;;;;;;17.67;46.66;102029.72;4982817;28;20559;-42
2021/04/12 01:11:21;;;;;;;1.77;1.67;;;;;;;17.67;46.33;102031.59;4984539;28;20034;-42
2021/04/12 01:14:14;;;;;;;1.65;1.55;;;;;;;17.65;46.45;102033.81;4984510;28;20481;-42
2021/04/12 01:16:57;;;;;;;4.45;1.95;;;;;;;17.64;46.78;102035.69;4983720;28;20503;-43
2021/04/12 01:19:25;;;;;;;1.67;1.45;;;;;;;17.64;46.44;102034.88;4984641;28;20038;-41
2021/04/12 01:22:08;;;;;;;1.60;1.50;;;;;;;17.62;46.57;102040.56;4983593;28;20539;-41
2021/04/12 01:25:07;;;;;;;2.20;2.00;;;;;;;17.63;46.68;102041.34;4981419;28;20053;-42
2021/04/12 01:27:51;;;;;;;3.15;1.60;;;;;;;17.62;46.71;102037.84;4966944;28;20098;-42
2021/04/12 01:30:41;;;;;;;2.47;1.70;;;;;;;17.63;46.47;102041.34;4981606;28;20034;-41
2021/04/12 01:33:27;;;;;;;1.70;1.60;;;;;;;17.59;46.73;102041.19;4998814;28;20038;-42
2021/04/12 01:36:22;;;;;;;4.53;2.05;;;;;;;17.59;46.64;102035.00;4982918;28;20026;-42
2021/04/12 01:39:20;;;;;;;2.20;2.08;;;;;;;17.59;46.43;102041.19;4983602;28;20038;-42
2021/04/12 01:41:54;;;;;;;1.83;1.65;;;;;;;17.59;46.43;102041.19;4966499;28;20038;-43
2021/04/12 01:44:29;;;;;;;2.05;1.85;;;;;;;17.59;46.62;102041.19;4983691;28;20041;-42
2021/04/12 01:47:09;;;;;;;1.70;1.60;;;;;;;17.58;46.50;102044.94;4980703;28;20053;-42
2021/04/12 01:49:46;;;;;;;2.78;1.60;;;;;;;17.57;46.65;102050.59;4966217;28;20046;-43
2021/04/12 01:52:46;;;;;;;1.70;1.60;;;;;;;17.57;46.40;102054.09;4999480;28;20080;-41
2021/04/12 01:55:26;;;;;;;1.67;1.58;;;;;;;17.54;46.67;102057.38;4981659;28;20018;-44
2021/04/12 01:58:07;;;;;;;4.22;1.60;;;;;;;17.55;46.61;102058.19;4981399;28;20107;-43
2021/04/12 02:00:52;;;;;;;3.10;1.60;;;;;;;17.55;46.58;102055.50;4977139;28;20038;-45
2021/04/12 02:03:26;;;;;;;1.85;1.40;;;;;;;17.54;46.60;102056.59;4981897;28;20125;-43
2021/04/12 02:06:01;;;;;;;1.97;1.63;;;;;;;17.54;46.53;102062.75;4982032;28;20117;-44
2021/04/12 02:08:33;;;;;;;1.65;1.58;;;;;;;17.54;46.56;102056.59;4997957;28;20043;-41
2021/04/12 02:11:12;;;;;;;1.40;1.40;;;;;;;17.52;46.71;102064.91;4981173;28;21756;-42
2021/04/12 02:14:00;;;;;;;1.92;1.50;;;;;;;17.52;46.49;102059.53;4982190;28;20144;-43
2021/04/12 02:16:47;;;;;;;1.73;1.58;;;;;;;17.51;46.43;102060.63;4984568;28;20030;-44
2021/04/12 02:19:40;;;;;;;2.35;1.42;;;;;;;17.51;46.75;102070.59;4986055;28;20034;-43
2021/04/12 02:22:16;;;;;;;2.67;1.70;;;;;;;17.49;46.55;102072.75;4986276;28;20037;-42
2021/04/12 02:25:04;;;;;;;3.13;1.42;;;;;;;17.49;46.62;102070.88;4985285;28;20030;-42
2021/04/12 02:28:00;;;;;;;1.50;1.40;;;;;;;17.49;46.54;102078.13;5000281;28;20123;-44
2021/04/12 02:30:44;;;;;;;2.30;1.52;;;;;;;17.48;46.34;102081.94;4986054;28;20066;-43
2021/04/12 02:33:27;;;;;;;1.50;1.42;;;;;;;17.48;46.52;102085.44;5002065;28;20042;-43
2021/04/12 02:36:11;;;;;;;1.67;1.35;;;;;;;17.47;46.77;102080.34;4985263;28;20540;-43
2021/04/12 02:38:54;;;;;;;3.20;1.67;;;;;;;17.48;46.45;102084.63;4987437;28;20054;-42
2021/04/12 02:41:55;;;;;;;2.35;1.40;;;;;;;17.48;46.72;102087.31;4985814;28;20084;-43
2021/04/12 02:44:39;;;;;;;1.40;1.30;;;;;;;17.46;46.45;102095.66;5000869;28;20030;-42
2021/04/12 02:47:19;;;;;;;1.30;1.20;;;;;;;17.47;46.37;102096.47;4986290;28;20046;-43
2021/04/12 02:50:09;;;;;;;3.53;1.30;;;;;;;17.47;46.35;102102.63;4968278;28;20276;-42
2021/04/12 02:53:12;;;;;;;1.70;1.60;;;;;;;17.48;46.42;102098.88;4986018;28;20030;-42
2021/04/12 02:56:06;;;;;;;1.52;1.40;;;;;;;17.47;46.47;102112.59;4986637;28;20579;-44
2021/04/12 02:58:50;;;;;;;1.50;1.38;;;;;;;17.47;46.24;102110.69;4986103;28;20040;-42
2021/04/12 03:01:53;;;;;;;5.17;1.60;;;;;;;17.45;46.55;102110.22;4985878;28;20089;-43
2021/04/12 03:04:23;;;;;;;3.05;1.67;;;;;;;17.45;46.26;102120.97;4986934;28;20030;-43
2021/04/12 03:07:13;;;;;;;2.10;1.50;;;;;;;17.43;46.51;102111.59;4985189;28;20092;-43
2021/04/12 03:10:07;;;;;;;1.60;1.50;;;;;;;17.43;46.66;102115.06;4985014;28;20042;-43
2021/04/12 03:12:50;;;;;;;3.70;1.95;;;;;;;17.40;46.83;102112.19;4986486;28;20026;-43
2021/04/12 03:15:30;;;;;;;1.75;1.42;;;;;;;17.39;46.33;102107.91;4986585;28;20030;-43
2021/04/12 03:18:28;;;;;;;1.50;1.50;;;;;;;17.37;46.43;102110.09;4984540;28;20034;-42
2021/04/12 03:21:21;;;;;;;1.50;1.40;;;;;;;17.37;46.42;102108.22;4984808;28;20034;-43
2021/04/12 03:23:58;;;;;;;2.00;1.73;;;;;;;17.39;46.60;102113.28;4984361;28;20038;-42
2021/04/12 03:26:24;;;;;;;1.40;1.20;;;;;;;17.37;46.49;102108.22;4985706;28;20038;-43
2021/04/12 03:29:05;;;;;;;2.80;1.20;;;;;;;17.37;46.43;102102.84;4985849;28;20101;-42
2021/04/12 03:31:50;;;;;;;2.88;1.50;;;;;;;17.39;46.40;102108.69;4984534;28;20101;-42
2021/04/12 03:34:23;;;;;;;1.38;1.27;;;;;;;17.37;46.65;102112.78;4983926;28;20050;-46
2021/04/12 03:37:04;;;;;;;1.50;1.40;;;;;;;17.36;46.17;102111.97;4985007;28;20109;-44
2021/04/12 03:39:45;;;;;;;1.50;1.40;;;;;;;17.39;46.48;102113.28;4984985;28;20018;-43
2021/04/12 03:42:26;;;;;;;1.40;1.40;;;;;;;17.39;46.45;102115.94;4984567;28;20559;-42
2021/04/12 03:45:17;;;;;;;4.47;1.50;;;;;;;17.40;46.37;102118.38;4969064;28;20049;-43
2021/04/12 03:48:20;;;;;;;2.67;1.73;;;;;;;17.38;46.60;102119.72;4985868;28;20028;-42
2021/04/12 03:51:07;;;;;;;1.77;1.55;;;;;;;17.36;46.66;102116.53;4984191;28;20049;-43
2021/04/12 03:53:47;;;;;;;1.80;1.48;;;;;;;17.37;46.51;102120.84;4984998;28;20030;-44
2021/04/12 03:56:31;;;;;;;1.50;1.27;;;;;;;17.34;46.74;102119.53;4984028;28;20034;-43
2021/04/12 03:59:33;;;;;;;3.13;1.40;;;;;;;17.34;46.66;102124.91;5001188;28;20105;-44
2021/04/12 04:02:06;;;;;;;3.28;1.60;;;;;;;17.35;46.37;102129.16;4985858;28;20030;-43
2021/04/12 04:04:57;;;;;;;1.90;1.63;;;;;;;17.34;46.47;102132.16;4984411;28;20057;-43
2021/04/12 04:07:59;;;;;;;1.02;1.02;;;;;;;17.34;46.34;102132.16;4985339;28;20069;-42
2021/04/12 04:10:46;;;;;;;1.73;1.27;;;;;;;17.34;46.54;102141.03;4984249;28;20231;-44
2021/04/12 04:13:38;;;;;;;1.17;1.00;;;;;;;17.33;46.42;102141.31;4986024;28;20117;-44
2021/04/12 04:16:22;;;;;;;1.10;1.10;;;;;;;17.32;46.61;102145.91;4969578;28;20099;-44
2021/04/12 04:18:57;;;;;;;1.65;1.55;;;;;;;17.32;46.42;102148.59;4984524;28;20105;-45
2021/04/12 04:21:35;;;;;;;1.48;1.40;;;;;;;17.33;46.04;102154.75;4984153;28;20116;-45
2021/04/12 04:24:23;;;;;;;1.50;1.20;;;;;;;17.35;46.30;102152.59;4984442;28;20034;-45
2021/04/12 04:27:01;;;;;;;1.20;1.20;;;;;;;17.34;46.46;102156.34;4983918;28;20076;-44
2021/04/12 04:29:39;;;;;;;1.10;1.10;;;;;;;17.34;46.37;102164.41;4951333;28;20038;-42
2021/04/12 04:32:32;;;;;;;1.20;1.20;;;;;;;17.33;46.41;102149.38;4979130;28;20061;-44
2021/04/12 04:35:35;;;;;;;1.67;1.40;;;;;;;17.36;46.39;102160.34;4980258;28;20018;-42
2021/04/12 04:38:37;;;;;;;1.40;1.30;;;;;;;17.35;46.25;102166.03;4982972;28;20109;-44
2021/04/12 04:41:05;;;;;;;1.33;1.27;;;;;;;17.35;46.34;102166.78;4982124;28;20033;-45
2021/04/12 04:43:45;;;;;;;2.30;1.35;;;;;;;17.38;46.32;102160.03;4982557;28;20045;-45
2021/04/12 04:46:29;;;;;;;1.10;1.10;;;;;;;17.38;46.21;102162.72;4980263;28;20030;-43
2021/04/12 04:49:19;;;;;;;2.28;1.40;;;;;;;17.37;46.61;102156.56;4978582;28;20128;-44
2021/04/12 04:52:12;;;;;;;1.05;1.02;;;;;;;17.39;46.24;102167.00;4981495;28;20046;-43
2021/04/12 04:54:56;;;;;;;1.30;1.20;;;;;;;17.46;46.35;102165.53;4984724;28;20499;-43
2021/04/12 04:57:30;;;;;;;1.52;1.38;;;;;;;17.54;46.22;102166.81;4983375;28;20047;-43
2021/04/12 05:00:14;;;;;;;1.83;1.30;;;;;;;17.59;45.83;102164.03;4963554;28;20033;-44
2021/04/12 05:03:01;;;;;;;5.47;1.33;;;;;;;17.60;45.50;102170.97;4982123;28;20041;-45
2021/04/12 05:05:52;;;;;;;1.30;1.20;;;;;;;17.59;45.59;102174.78;4979654;28;20268;-45
2021/04/12 05:08:56;;;;;;;8.00;1.50;;;;;;;17.58;45.37;102175.84;4982608;28;20042;-44
2021/04/12 05:11:31;;;;;;;1.85;1.55;;;;;;;17.58;45.09;102173.97;4979504;28;20113;-46
2021/04/12 05:14:12;;;;;;;1.20;1.02;;;;;;;17.56;45.68;102186.91;4981536;28;20046;-44
2021/04/12 05:16:56;;;;;;;1.23;1.13;;;;;;;17.54;45.48;102189.06;4950182;28;20034;-47
2021/04/12 05:19:38;;;;;;;2.22;1.27;;;;;;;17.51;45.71;102186.16;5003115;28;20030;-48
2021/04/12 05:22:28;;;;;;;3.70;1.48;;;;;;;17.46;45.84;102187.03;4966071;28;20030;-47
2021/04/12 05:25:05;;;;;;;3.25;1.70;;;;;;;17.46;45.45;102191.63;4983805;28;20037;-46
2021/04/12 05:27:37;;;;;;;3.40;1.65;;;;;;;17.44;45.47;102196.47;4966348;28;20125;-48
2021/04/12 05:30:08;;;;;;;8.65;1.98;;;;;;;17.44;47.16;102202.66;4992869;28;20030;-48
2021/04/12 05:32:47;;;;;;;5.25;1.95;;;;;;;17.51;49.10;102197.69;4980188;28;20046;-48
2021/04/12 05:35:31;;;;;;;8.02;2.22;;;;;;;17.54;51.07;102197.13;4978806;28;20033;-44
2021/04/12 05:38:15;;;;;;;1.40;1.25;;;;;;;17.52;51.33;102204.66;4993962;28;20579;-45
2021/04/12 05:40:43;;;;;;;2.10;1.90;;;;;;;17.49;51.52;102210.63;4973697;28;20030;-44
2021/04/12 05:43:45;;;;;;;3.90;1.92;;;;;;;17.47;51.67;102215.50;4976562;28;20371;-45
2021/04/12 05:46:34;;;;;;;1.85;1.70;;;;;;;17.43;51.45;102211.81;4965894;28;20026;-46
2021/04/12 05:49:20;;;;;;;5.55;1.60;;;;;;;17.40;51.22;102212.41;4950159;28;131948;-46
2021/04/12 05:52:04;;;;;;;2.28;1.50;;;;;;;17.39;50.70;102216.19;4915399;28;20053;-46
2021/04/12 05:55:04;;;;;;;2.10;1.40;;;;;;;17.41;50.07;102226.63;4981398;28;20034;-45
2021/04/12 05:57:55;;;;;;;2.08;1.60;;;;;;;17.38;50.27;102228.00;4996702;28;20109;-46
2021/04/12 06:00:36;;;;;;;1.40;1.30;;;;;;;17.37;50.22;102231.00;5000762;28;20029;-46
2021/04/12 06:03:05;;;;;;;2.78;1.23;;;;;;;17.39;50.00;102226.13;4980667;28;20070;-46
2021/04/12 06:06:08;;;;;;;2.88;1.50;;;;;;;17.35;49.89;102233.19;4977098;28;20030;-45
2021/04/12 06:08:55;;;;;;;2.22;1.80;;;;;;;17.37;49.63;102236.38;4979076;28;20540;-45
2021/04/12 06:11:25;;;;;;;1.70;1.50;;;;;;;17.37;49.42;102236.38;4981852;28;20555;-45
2021/04/12 06:14:24;;;;;;;5.50;1.42;;;;;;;17.36;49.19;102248.19;4980259;28;20030;-47
2021/04/12 06:17:20;;;;;;;2.88;1.60;;;;;;;17.33;49.27;102256.84;4978874;28;20472;-46
2021/04/12 06:20:12;;;;;;;4.30;1.90;;;;;;;17.36;49.26;102258.94;4978802;28;20542;-44
2021/04/12 06:23:08;;;;;;;1.88;1.50;;;;;;;17.33;48.93;102262.22;4981038;28;20035;-44
2021/04/12 06:25:57;;;;;;;1.80;1.70;;;;;;;17.33;48.89;102264.91;4963136;28;20027;-45
2021/04/12 06:28:38;;;;;;;2.50;1.70;;;;;;;17.34;48.71;102270.00;4981796;28;20101;-45
2021/04/12 06:31:30;;;;;;;6.20;1.63;;;;;;;17.35;48.81;102268.13;4975012;28;20085;-46
2021/04/12 06:34:32;;;;;;;10.60;2.40;;;;;;;17.37;49.05;102274.00;4965984;28;20526;-46
2021/04/12 06:37:27;;;;;;;10.40;2.00;;;;;;;17.36;48.69;102267.81;4979232;28;20039;-45
2021/04/12 06:40:12;;;;;;;4.90;1.90;;;;;;;17.37;48.25;102271.31;4971694;28;20042;-48
2021/04/12 06:43:07;;;;;;;11.07;2.17;;;;;;;17.37;48.28;102272.13;4978163;28;20031;-48
2021/04/12 06:46:03;;;;;;;8.45;1.98;;;;;;;17.36;47.87;102272.38;4981354;28;20050;-46
2021/04/12 06:48:38;;;;;;;4.95;1.55;;;;;;;17.38;48.03;102276.38;5000819;28;20045;-46
2021/04/12 06:51:44;;;;;;;6.20;1.73;;;;;;;17.38;48.01;102280.94;4977949;28;20054;-49
2021/04/12 06:54:42;;;;;;;2.90;1.58;;;;;;;17.39;47.96;102278.00;4980302;28;20034;-48
2021/04/12 06:57:26;;;;;;;5.35;2.00;;;;;;;17.39;47.81;102279.88;4978877;28;20068;-47
2021/04/12 07:00:10;;;;;;;2.73;1.53;;;;;;;17.39;47.86;102287.94;5004122;28;20026;-48
2021/04/12 07:02:58;;;;;;;2.25;1.30;;;;;;;17.38;47.62;102291.69;5004045;28;20284;-46
2021/04/12 07:05:33;;;;;;;3.75;1.30;;;;;;;17.39;47.76;102290.63;4980906;28;20061;-46
2021/04/12 07:08:20;;;;;;;6.78;1.30;;;;;;;17.48;48.17;102286.19;4980591;28;20034;-54
2021/04/12 07:10:56;;;;;;;3.03;1.50;;;;;;;17.71;48.21;102288.78;4907934;28;92476;-45
2021/04/12 07:13:35;;;;;;;3.25;1.85;;;;;;;17.87;49.40;102289.34;4966467;28;20045;-50
2021/04/12 07:16:16;;;;;;;2.90;1.60;;;;;;;18.09;49.81;102291.38;4976235;28;20030;-46
2021/04/12 07:19:09;;;;;;;4.57;1.33;;;;;;;18.32;50.99;102306.56;4981682;28;20045;-46
2021/04/12 07:22:15;;;;;;;3.55;1.50;;;;;;;18.43;49.21;102299.09;4983452;28;20054;-49
2021/04/12 07:24:53;;;;;;;19.17;1.95;;;;;;;18.49;49.99;102298.75;4983487;28;20023;-48
2021/04/12 07:27:46;;;;;;;4.00;1.40;;;;;;;18.56;50.83;102306.41;4983148;28;20049;-48
2021/04/12 07:30:47;;;;;;;2.80;1.20;;;;;;;18.54;49.08;102319.38;4985830;28;20440;-52
2021/04/12 07:33:26;;;;;;;4.88;1.35;;;;;;;18.55;49.25;102316.38;4999831;28;20571;-53
2021/04/12 07:36:14;;;;;;;3.50;1.60;;;;;;;18.58;48.95;102326.56;5001111;28;20030;-50
2021/04/12 07:39:02;;;;;;;1.98;1.10;;;;;;;18.66;48.70;102327.78;4986195;28;20069;-51
2021/04/12 07:41:47;;;;;;;2.50;1.38;;;;;;;18.67;48.37;102335.53;4983206;28;20538;-46
2021/04/12 07:44:47;;;;;;;2.90;1.50;;;;;;;18.71;48.47;102327.66;4982067;28;20034;-45
2021/04/12 07:47:40;;;;;;;1.90;1.45;;;;;;;18.70;48.29;102343.03;4969094;28;20030;-48
2021/04/12 07:50:32;;;;;;;1.55;1.20;;;;;;;18.71;47.87;102347.31;4993298;28;20113;-47
2021/04/12 07:53:13;;;;;;;3.05;1.45;;;;;;;18.76;47.70;102349.09;4967875;28;20034;-45
2021/04/12 07:56:05;;;;;;;1.38;1.20;;;;;;;18.83;47.51;102344.09;4982523;28;20038;-48
2021/04/12 07:58:31;;;;;;;2.15;1.20;;;;;;;18.84;47.47;102348.41;4986018;28;20035;-44
2021/04/12 08:01:20;;;;;;;1.67;1.10;;;;;;;18.83;46.93;102341.41;4983900;28;20436;-47
2021/04/12 08:04:04;;;;;;;2.83;1.20;;;;;;;18.86;46.81;102352.41;4982723;28;20033;-48
2021/04/12 08:07:03;;;;;;;2.77;1.40;;;;;;;18.89;46.43;102342.91;4980544;28;20464;-46
2021/04/12 08:09:55;;;;;;;1.10;1.10;;;;;;;18.95;46.30;102349.81;4981584;28;20516;-44
2021/04/12 08:12:29;;;;;;;4.30;1.40;;;;;;;19.00;46.00;102356.97;4980891;28;20089;-45
2021/04/12 08:15:31;;;;;;;2.50;1.25;;;;;;;19.00;45.77;102356.97;4999370;28;20125;-51
2021/04/12 08:18:24;;;;;;;3.25;1.25;;;;;;;19.05;45.66;102357.66;4999991;28;20054;-48
2021/04/12 08:21:08;;;;;;;2.40;1.23;;;;;;;19.02;45.83;102363.66;4982152;28;20026;-46
2021/04/12 08:24:06;;;;;;;4.40;1.10;;;;;;;18.94;45.70;102362.47;4998785;28;20042;-48
2021/04/12 08:26:59;;;;;;;1.33;1.08;;;;;;;18.88;45.63;102368.25;4977533;28;20156;-45
2021/04/12 08:29:56;;;;;;;2.45;1.10;;;;;;;18.88;45.58;102371.75;4992451;28;20041;-46
2021/04/12 08:32:33;;;;;;;1.98;1.10;;;;;;;18.85;45.45;102379.66;4983721;28;20070;-46
2021/04/12 08:34:58;;;;;;;1.73;1.00;;;;;;;18.83;45.47;102373.72;4983472;28;20511;-49
2021/04/12 08:37:55;;;;;;;3.53;1.20;;;;;;;18.86;45.49;102378.53;4982395;28;20042;-51
2021/04/12 08:40:24;;;;;;;1.35;1.00;;;;;;;18.88;45.02;102387.91;4998241;28;20081;-48
2021/04/12 08:43:03;;;;;;;8.52;1.17;;;;;;;18.89;45.08;102394.09;4983625;28;20038;-45
2021/04/12 08:45:55;;;;;;;5.47;0.90;;;;;;;18.96;45.11;102391.81;4983370;28;20046;-47
2021/04/12 08:48:38;;;;;;;4.60;1.08;;;;;;;18.97;44.93;102389.91;4980272;28;20062;-48
2021/04/12 08:51:36;;;;;;;5.72;1.20;;;;;;;19.02;45.08;102397.88;4979731;28;20056;-47
2021/04/12 08:54:39;;;;;;;1.33;1.20;;;;;;;19.12;44.88;102403.09;4982184;28;20195;-49
2021/04/12 08:57:25;;;;;;;6.78;1.10;;;;;;;19.21;44.89;102401.25;4980519;28;20050;-44
2021/04/12 09:00:29;;;;;;;2.38;1.10;;;;;;;19.19;45.14;102408.84;4965240;28;20176;-47
2021/04/12 09:03:22;;;;;;;5.35;1.10;;;;;;;19.21;44.78;102403.94;4966563;28;20414;-46
2021/04/12 09:06:14;;;;;;;1.92;1.00;;;;;;;19.21;44.64;102402.06;4981752;28;20037;-50
2021/04/12 09:09:01;;;;;;;4.35;1.08;;;;;;;19.21;44.67;102407.44;4981006;28;20586;-50
2021/04/12 09:11:57;;;;;;;1.90;1.08;;;;;;;19.20;44.53;102403.19;4982065;28;20050;-50
2021/04/12 09:14:44;;;;;;;2.47;1.00;;;;;;;19.24;44.31;102416.81;4982436;28;20057;-44
2021/04/12 09:17:51;;;;;;;1.98;1.10;;;;;;;19.23;44.49;102420.66;4964774;28;20101;-49
2021/04/12 09:20:54;;;;;;;2.60;1.10;;;;;;;19.29;44.29;102420.22;4929821;28;20096;-46
2021/04/12 09:23:19;;;;;;;5.10;1.33;;;;;;;19.29;44.45;102428.31;4981862;28;20493;-43
2021/04/12 09:25:56;;;;;;;1.63;1.20;;;;;;;19.30;44.30;102423.72;4937708;28;20770;-41
2021/04/12 09:28:43;;;;;;;1.45;0.80;;;;;;;19.32;44.10;102433.09;4994299;28;20121;-45
2021/04/12 09:31:31;;;;;;;1.88;0.77;;;;;;;19.34;44.15;102425.50;4965350;28;20076;-43
2021/04/12 09:34:06;;;;;;;1.27;1.15;;;;;;;19.32;44.00;102427.72;4981277;28;20070;-42
2021/04/12 09:37:03;;;;;;;1.50;0.90;;;;;;;19.34;44.14;102436.28;4981122;28;20053;-44
2021/04/12 09:39:51;;;;;;;2.17;1.02;;;;;;;19.38;43.64;102433.81;4975105;28;20042;-42
2021/04/12 09:42:39;;;;;;;1.25;1.13;;;;;;;19.34;43.76;102441.69;4982143;28;20134;-41
2021/04/12 09:45:29;;;;;;;1.30;0.90;;;;;;;19.42;43.80;102445.63;4965875;28;20030;-43
2021/04/12 09:48:19;;;;;;;2.88;1.02;;;;;;;19.45;43.57;102445.78;4982276;28;20053;-42
2021/04/12 09:50:50;;;;;;;1.25;1.13;;;;;;;19.45;43.43;102453.09;4995680;28;20124;-44
2021/04/12 09:53:44;;;;;;;1.10;0.93;;;;;;;19.49;43.37;102454.88;4979656;28;20095;-46
2021/04/12 09:56:28;;;;;;;4.47;1.40;;;;;;;19.55;43.23;102450.19;5001637;28;20121;-45
2021/04/12 09:59:31;;;;;;;4.03;1.00;;;;;;;19.53;43.33;102453.16;4982946;28;20038;-43
2021/04/12 10:02:16;;;;;;;1.42;1.00;;;;;;;19.43;43.41;102456.09;4972713;28;20280;-44
2021/04/12 10:05:10;;;;;;;2.67;1.15;;;;;;;19.38;43.51;102466.16;4979385;28;20201;-41
2021/04/12 10:08:02;;;;;;;3.15;1.00;;;;;;;19.41;43.39;102476.34;4980205;28;20042;-42
2021/04/12 10:10:39;;;;;;;6.43;1.23;;;;;;;19.45;43.28;102474.69;4979990;28;20116;-42
2021/04/12 10:13:41;;;;;;;5.10;1.00;;;;;;;19.44;43.41;102473.06;4981137;28;20038;-42
2021/04/12 10:16:15;;;;;;;1.75;0.85;;;;;;;19.47;42.96;102477.84;4975798;28;20041;-42
2021/04/12 10:18:45;;;;;;;3.80;0.95;;;;;;;19.41;43.31;102470.97;4975890;28;20115;-41
2021/04/12 10:21:30;;;;;;;1.95;0.82;;;;;;;19.41;43.19;102468.28;4979030;28;20061;-42
2021/04/12 10:24:18;;;;;;;;;;;;;;;19.40;43.03;102467.47;4977295;28;20035;-43
2021/04/12 10:26:55;;;;;;;3.90;0.70;;;;;;;19.37;43.02;102464.56;4975442;28;21278;-41
2021/04/12 10:29:29;;;;;;;1.30;0.47;;;;;;;19.33;43.15;102458.16;4976816;28;20042;-42
2021/04/12 10:31:58;;;;;;;1.73;0.60;;;;;;;19.29;43.22;102455.25;4981081;28;20049;-43
2021/04/12 10:34:29;;;;;;;1.45;0.43;;;;;;;19.22;43.32;102462.16;4983610;28;20053;-45
2021/04/12 10:37:19;;;;;;;1.55;0.40;;;;;;;19.14;43.42;102452.88;4982453;28;20045;-41
2021/04/12 10:39:59;;;;;;;2.63;0.50;;;;;;;19.17;43.38;102446.09;4981523;28;20061;-41
2021/04/12 10:42:44;;;;;;;0.65;0.50;;;;;;;19.12;43.41;102451.59;4979131;28;20066;-42
2021/04/12 10:45:10;;;;;;;;;;;;;;;19.11;43.53;102447.28;4965369;28;20040;-42
2021/04/12 10:47:54;;;;;;;0.50;0.50;;;;;;;19.14;43.53;102450.19;4981472;28;19921;-42
2021/04/12 10:50:27;;;;;;;0.63;0.63;;;;;;;19.13;43.55;102455.84;4979208;28;21137;-41
2021/04/12 10:53:09;;;;;;;0.40;0.32;;;;;;;19.08;43.71;102458.66;4982699;28;20051;-43
2021/04/12 10:55:42;;;;;;;0.73;0.60;;;;;;;19.05;43.55;102454.66;4981497;28;20129;-41
2021/04/12 10:58:28;;;;;;;0.88;0.60;;;;;;;19.10;43.38;102446.47;4962650;28;20039;-41
2021/04/12 11:01:06;;;;;;;0.90;0.90;;;;;;;19.09;43.64;102450.28;4981585;28;20562;-43
2021/04/12 11:03:47;;;;;;;0.40;0.40;;;;;;;19.12;43.52;102448.91;4965523;28;20523;-41
2021/04/12 11:06:35;;;;;;;0.30;0.30;;;;;;;19.03;43.54;102448.78;4981947;28;20037;-40
2021/04/12 11:09:23;;;;;;;0.35;0.35;;;;;;;19.05;43.75;102459.25;4978848;28;20117;-41
2021/04/12 11:11:59;;;;;;;0.73;0.60;;;;;;;19.08;43.45;102443.28;4980389;28;20117;-47
2021/04/12 11:14:32;;;;;;;0.80;0.70;;;;;;;19.15;43.52;102448.28;4974922;28;20038;-45
2021/04/12 11:16:59;;;;;;;0.85;0.80;;;;;;;19.21;43.69;102453.28;4976800;28;20128;-43
2021/04/12 11:19:26;;;;;;;1.08;0.80;;;;;;;19.21;43.95;102447.06;4980438;28;20057;-43
2021/04/12 11:22:02;;;;;;;2.00;0.80;;;;;;;19.25;44.02;102454.28;4983548;28;20045;-45
2021/04/12 11:24:50;;;;;;;1.10;0.80;;;;;;;19.31;44.07;102457.69;4977831;28;20049;-43
2021/04/12 11:27:30;;;;;;;1.20;0.82;;;;;;;19.33;44.17;102452.78;4981398;28;20048;-46
2021/04/12 11:30:10;;;;;;;1.52;0.63;;;;;;;19.28;44.26;102460.97;4983565;28;20153;-47
2021/04/12 11:33:01;;;;;;;1.90;0.80;;;;;;;19.33;44.30;102450.88;4998073;28;20125;-42
2021/04/12 11:35:51;;;;;;;1.45;0.82;;;;;;;19.40;44.30;102453.19;4970907;28;20704;-47
2021/04/12 11:38:37;;;;;;;4.75;0.80;;;;;;;19.50;44.14;102450.28;4998988;28;20057;-45
2021/04/12 11:41:18;;;;;;;1.33;0.75;;;;;;;19.54;44.28;102459.38;4941757;28;20081;-46
2021/04/12 11:43:48;;;;;;;0.85;0.80;;;;;;;19.62;44.06;102461.34;4966191;28;20038;-42
2021/04/12 11:47:07;;;;;;;0.70;0.70;;;;;;;19.66;44.24;102454.25;4972674;28;20496;-42
2021/04/12 11:49:55;;;;;;;3.08;0.95;;;;;;;19.74;44.19;102455.44;4949337;28;20062;-44
2021/04/12 11:52:22;;;;;;;3.25;0.82;;;;;;;19.78;44.01;102467.22;4992822;28;20054;-47
2021/04/12 11:55:32;;;;;;;2.22;0.80;;;;;;;19.73;44.36;102459.22;4966999;28;20117;-46
2021/04/12 11:58:16;;;;;;;1.25;0.70;;;;;;;19.69;44.64;102469.03;4957610;28;20229;-45
2021/04/12 12:01:07;;;;;;;0.68;0.68;;;;;;;19.62;45.01;102465.97;4978519;28;20039;-42
2021/04/12 12:04:01;;;;;;;1.83;0.70;;;;;;;19.63;44.75;102472.94;4983540;28;20049;-45
2021/04/12 12:06:33;;;;;;;2.15;0.80;;;;;;;19.63;44.85;102475.63;4976930;28;20058;-41
2021/04/12 12:09:08;;;;;;;0.52;0.52;;;;;;;19.63;44.95;102487.22;4981716;28;20178;-46
2021/04/12 12:11:56;;;;;;;0.82;0.82;;;;;;;19.64;44.83;102482.63;4966526;28;20046;-48
2021/04/12 12:14:35;;;;;;;2.50;0.80;;;;;;;19.59;44.73;102488.13;4976271;28;20068;-45
2021/04/12 12:17:01;;;;;;;1.50;0.80;;;;;;;19.57;44.88;102493.00;4979233;28;20053;-42
2021/04/12 12:19:36;;;;;;;1.30;0.70;;;;;;;19.54;44.93;102489.03;4965084;28;20050;-42
2021/04/12 12:22:20;;;;;;;3.50;0.80;;;;;;;19.52;44.94;102500.13;4996786;28;20041;-48
2021/04/12 12:25:00;;;;;;;1.42;0.70;;;;;;;19.54;44.80;102510.59;4981949;28;20695;-47
2021/04/12 12:27:29;;;;;;;0.60;0.60;;;;;;;19.53;45.07;102504.41;4982901;28;20062;-42
2021/04/12 12:30:09;;;;;;;2.50;1.00;;;;;;;19.53;44.88;102528.66;4981678;28;20035;-43
2021/04/12 12:32:48;;;;;;;2.35;0.85;;;;;;;19.48;44.86;102528.00;4978161;28;20125;-42
2021/04/12 12:35:28;;;;;;;1.90;0.80;;;;;;;19.46;45.02;102532.88;4980188;28;20042;-45
2021/04/12 12:38:27;;;;;;;3.75;0.90;;;;;;;19.51;44.67;102536.28;4978246;28;20521;-45
2021/04/12 12:41:02;;;;;;;1.70;0.98;;;;;;;19.57;44.49;102522.69;4981847;28;20092;-49
2021/04/12 12:43:32;;;;;;;2.35;1.08;;;;;;;19.61;44.34;102531.78;4948778;28;20049;-44
2021/04/12 12:46:25;;;;;;;1.80;0.90;;;;;;;19.60;44.40;102549.84;4977530;28;20125;-46
2021/04/12 12:49:10;;;;;;;0.88;0.77;;;;;;;19.59;44.28;102545.56;4959764;28;20404;-47